sensor_id;sensor_type;location;lat;lon;timestamp;P1;durP1;ratioP1;P2;durP2;ratioP2
59169;SDS011;52474;52.236;5.114;2023-12-29T00:00:26;15.18;;;3.72;;
59169;SDS011;52474;52.236;5.114;2023-12-29T00:02:51;14.98;;;3.17;;
59169;SDS011;52474;52.236;5.114;2023-12-29T00:05:17;12.98;;;3.20;;
59169;SDS011;52474;52.236;5.114;2023-12-29T00:07:43;19.80;;;4.05;;
59169;SDS011;52474;52.236;5.114;2023-12-29T00:10:08;14.23;;;3.38;;
59169;SDS011;52474;52.236;5.114;2023-12-29T00:12:34;19.27;;;3.60;;
59169;SDS011;52474;52.236;5.114;2023-12-29T00:14:59;17.10;;;3.85;;
59169;SDS011;52474;52.236;5.114;2023-12-29T00:17:25;16.42;;;3.13;;
59169;SDS011;52474;52.236;5.114;2023-12-29T00:19:51;19.13;;;3.55;;
59169;SDS011;52474;52.236;5.114;2023-12-29T00:22:18;13.75;;;3.30;;
59169;SDS011;52474;52.236;5.114;2023-12-29T00:24:44;13.23;;;3.65;;
59169;SDS011;52474;52.236;5.114;2023-12-29T00:27:10;15.45;;;3.00;;
59169;SDS011;52474;52.236;5.114;2023-12-29T00:29:36;16.85;;;4.07;;
59169;SDS011;52474;52.236;5.114;2023-12-29T00:32:01;13.35;;;2.72;;
59169;SDS011;52474;52.236;5.114;2023-12-29T00:34:28;19.98;;;3.08;;
59169;SDS011;52474;52.236;5.114;2023-12-29T00:36:54;15.98;;;3.95;;
59169;SDS011;52474;52.236;5.114;2023-12-29T00:39:21;19.70;;;4.93;;
59169;SDS011;52474;52.236;5.114;2023-12-29T00:41:54;15.25;;;3.30;;
59169;SDS011;52474;52.236;5.114;2023-12-29T00:44:21;13.88;;;2.88;;
59169;SDS011;52474;52.236;5.114;2023-12-29T00:46:47;13.82;;;3.25;;
59169;SDS011;52474;52.236;5.114;2023-12-29T00:49:13;16.88;;;3.25;;
59169;SDS011;52474;52.236;5.114;2023-12-29T00:51:39;17.30;;;3.47;;
59169;SDS011;52474;52.236;5.114;2023-12-29T00:54:06;18.15;;;3.35;;
59169;SDS011;52474;52.236;5.114;2023-12-29T00:56:32;17.05;;;3.35;;
59169;SDS011;52474;52.236;5.114;2023-12-29T00:58:59;14.75;;;3.00;;
59169;SDS011;52474;52.236;5.114;2023-12-29T01:01:25;13.55;;;2.63;;
59169;SDS011;52474;52.236;5.114;2023-12-29T01:03:51;10.68;;;2.88;;
59169;SDS011;52474;52.236;5.114;2023-12-29T01:06:20;19.38;;;3.67;;
59169;SDS011;52474;52.236;5.114;2023-12-29T01:08:46;12.30;;;3.50;;
59169;SDS011;52474;52.236;5.114;2023-12-29T01:11:11;14.13;;;2.60;;
59169;SDS011;52474;52.236;5.114;2023-12-29T01:13:37;14.45;;;2.80;;
59169;SDS011;52474;52.236;5.114;2023-12-29T01:16:02;13.70;;;2.50;;
59169;SDS011;52474;52.236;5.114;2023-12-29T01:18:28;10.48;;;2.72;;
59169;SDS011;52474;52.236;5.114;2023-12-29T01:20:54;10.82;;;2.10;;
59169;SDS011;52474;52.236;5.114;2023-12-29T01:23:20;12.52;;;2.45;;
59169;SDS011;52474;52.236;5.114;2023-12-29T01:25:46;14.70;;;2.58;;
59169;SDS011;52474;52.236;5.114;2023-12-29T01:28:12;18.38;;;3.22;;
59169;SDS011;52474;52.236;5.114;2023-12-29T01:30:37;13.30;;;3.55;;
59169;SDS011;52474;52.236;5.114;2023-12-29T01:33:04;13.93;;;2.95;;
59169;SDS011;52474;52.236;5.114;2023-12-29T01:35:29;17.13;;;3.67;;
59169;SDS011;52474;52.236;5.114;2023-12-29T01:37:55;12.95;;;2.90;;
59169;SDS011;52474;52.236;5.114;2023-12-29T01:40:22;14.18;;;3.17;;
59169;SDS011;52474;52.236;5.114;2023-12-29T01:42:48;17.42;;;3.20;;
59169;SDS011;52474;52.236;5.114;2023-12-29T01:45:21;14.52;;;3.58;;
59169;SDS011;52474;52.236;5.114;2023-12-29T01:47:49;12.20;;;2.78;;
59169;SDS011;52474;52.236;5.114;2023-12-29T01:50:17;16.33;;;3.53;;
59169;SDS011;52474;52.236;5.114;2023-12-29T01:52:45;13.10;;;3.07;;
59169;SDS011;52474;52.236;5.114;2023-12-29T01:55:14;17.65;;;3.72;;
59169;SDS011;52474;52.236;5.114;2023-12-29T01:57:42;15.13;;;3.28;;
59169;SDS011;52474;52.236;5.114;2023-12-29T02:00:08;11.55;;;2.83;;
59169;SDS011;52474;52.236;5.114;2023-12-29T02:02:38;18.75;;;3.85;;
59169;SDS011;52474;52.236;5.114;2023-12-29T02:05:05;10.27;;;3.40;;
59169;SDS011;52474;52.236;5.114;2023-12-29T02:07:31;12.13;;;3.25;;
59169;SDS011;52474;52.236;5.114;2023-12-29T02:09:58;13.15;;;3.35;;
59169;SDS011;52474;52.236;5.114;2023-12-29T02:12:25;12.68;;;3.20;;
59169;SDS011;52474;52.236;5.114;2023-12-29T02:14:50;14.00;;;2.78;;
59169;SDS011;52474;52.236;5.114;2023-12-29T02:17:26;11.00;;;3.05;;
59169;SDS011;52474;52.236;5.114;2023-12-29T02:19:56;10.82;;;2.95;;
59169;SDS011;52474;52.236;5.114;2023-12-29T02:22:22;11.40;;;3.53;;
59169;SDS011;52474;52.236;5.114;2023-12-29T02:24:51;12.57;;;3.58;;
59169;SDS011;52474;52.236;5.114;2023-12-29T02:33:05;14.95;;;3.63;;
59169;SDS011;52474;52.236;5.114;2023-12-29T02:38:03;11.73;;;3.50;;
59169;SDS011;52474;52.236;5.114;2023-12-29T02:40:29;18.08;;;3.72;;
59169;SDS011;52474;52.236;5.114;2023-12-29T02:42:55;15.90;;;3.50;;
59169;SDS011;52474;52.236;5.114;2023-12-29T02:45:21;13.55;;;3.90;;
59169;SDS011;52474;52.236;5.114;2023-12-29T02:47:47;14.95;;;3.40;;
59169;SDS011;52474;52.236;5.114;2023-12-29T02:50:14;13.65;;;3.63;;
59169;SDS011;52474;52.236;5.114;2023-12-29T02:52:39;14.73;;;3.38;;
59169;SDS011;52474;52.236;5.114;2023-12-29T02:55:05;12.82;;;2.88;;
59169;SDS011;52474;52.236;5.114;2023-12-29T02:57:31;17.35;;;3.55;;
59169;SDS011;52474;52.236;5.114;2023-12-29T02:59:57;12.73;;;3.25;;
59169;SDS011;52474;52.236;5.114;2023-12-29T03:02:23;10.88;;;3.58;;
59169;SDS011;52474;52.236;5.114;2023-12-29T03:04:49;10.40;;;3.08;;
59169;SDS011;52474;52.236;5.114;2023-12-29T03:07:15;16.50;;;4.25;;
59169;SDS011;52474;52.236;5.114;2023-12-29T03:09:41;12.40;;;3.78;;
59169;SDS011;52474;52.236;5.114;2023-12-29T03:12:07;15.40;;;4.90;;
59169;SDS011;52474;52.236;5.114;2023-12-29T03:14:33;16.10;;;4.53;;
59169;SDS011;52474;52.236;5.114;2023-12-29T03:16:58;18.98;;;4.38;;
59169;SDS011;52474;52.236;5.114;2023-12-29T03:19:24;19.98;;;4.85;;
59169;SDS011;52474;52.236;5.114;2023-12-29T03:21:50;18.95;;;4.72;;
59169;SDS011;52474;52.236;5.114;2023-12-29T03:24:16;15.85;;;4.35;;
59169;SDS011;52474;52.236;5.114;2023-12-29T03:26:42;22.92;;;5.60;;
59169;SDS011;52474;52.236;5.114;2023-12-29T03:29:08;21.55;;;4.95;;
59169;SDS011;52474;52.236;5.114;2023-12-29T03:31:33;22.08;;;5.07;;
59169;SDS011;52474;52.236;5.114;2023-12-29T03:33:59;20.77;;;5.35;;
59169;SDS011;52474;52.236;5.114;2023-12-29T03:36:25;20.50;;;4.75;;
59169;SDS011;52474;52.236;5.114;2023-12-29T03:38:50;27.17;;;5.10;;
59169;SDS011;52474;52.236;5.114;2023-12-29T03:41:16;27.90;;;4.18;;
59169;SDS011;52474;52.236;5.114;2023-12-29T03:43:42;22.10;;;4.13;;
59169;SDS011;52474;52.236;5.114;2023-12-29T03:46:17;27.35;;;4.63;;
59169;SDS011;52474;52.236;5.114;2023-12-29T03:48:44;23.33;;;4.28;;
59169;SDS011;52474;52.236;5.114;2023-12-29T03:51:10;23.90;;;4.60;;
59169;SDS011;52474;52.236;5.114;2023-12-29T03:53:35;29.15;;;4.28;;
59169;SDS011;52474;52.236;5.114;2023-12-29T03:56:06;27.05;;;4.53;;
59169;SDS011;52474;52.236;5.114;2023-12-29T03:58:33;32.55;;;4.63;;
59169;SDS011;52474;52.236;5.114;2023-12-29T04:00:59;34.10;;;4.55;;
59169;SDS011;52474;52.236;5.114;2023-12-29T04:03:24;29.02;;;4.40;;
59169;SDS011;52474;52.236;5.114;2023-12-29T04:05:51;30.23;;;5.03;;
59169;SDS011;52474;52.236;5.114;2023-12-29T04:08:16;28.70;;;4.18;;
59169;SDS011;52474;52.236;5.114;2023-12-29T04:10:42;25.27;;;3.85;;
59169;SDS011;52474;52.236;5.114;2023-12-29T04:13:07;36.08;;;4.15;;
59169;SDS011;52474;52.236;5.114;2023-12-29T04:15:33;29.15;;;4.07;;
59169;SDS011;52474;52.236;5.114;2023-12-29T04:17:59;25.58;;;4.13;;
59169;SDS011;52474;52.236;5.114;2023-12-29T04:20:24;30.52;;;5.78;;
59169;SDS011;52474;52.236;5.114;2023-12-29T04:22:50;32.33;;;4.90;;
59169;SDS011;52474;52.236;5.114;2023-12-29T04:25:16;30.15;;;4.55;;
59169;SDS011;52474;52.236;5.114;2023-12-29T04:27:41;25.30;;;4.30;;
59169;SDS011;52474;52.236;5.114;2023-12-29T04:30:07;32.95;;;4.45;;
59169;SDS011;52474;52.236;5.114;2023-12-29T04:32:33;28.98;;;4.60;;
59169;SDS011;52474;52.236;5.114;2023-12-29T04:34:59;26.27;;;5.03;;
59169;SDS011;52474;52.236;5.114;2023-12-29T04:37:24;30.45;;;3.95;;
59169;SDS011;52474;52.236;5.114;2023-12-29T04:39:50;34.10;;;4.63;;
59169;SDS011;52474;52.236;5.114;2023-12-29T04:42:16;34.05;;;4.90;;
59169;SDS011;52474;52.236;5.114;2023-12-29T04:44:43;34.78;;;5.15;;
59169;SDS011;52474;52.236;5.114;2023-12-29T04:47:09;30.90;;;4.43;;
59169;SDS011;52474;52.236;5.114;2023-12-29T04:49:35;35.88;;;5.75;;
59169;SDS011;52474;52.236;5.114;2023-12-29T04:52:00;38.38;;;5.22;;
59169;SDS011;52474;52.236;5.114;2023-12-29T04:54:27;33.00;;;5.15;;
59169;SDS011;52474;52.236;5.114;2023-12-29T04:56:52;32.00;;;5.60;;
59169;SDS011;52474;52.236;5.114;2023-12-29T04:59:18;36.25;;;5.85;;
59169;SDS011;52474;52.236;5.114;2023-12-29T05:01:44;33.53;;;5.03;;
59169;SDS011;52474;52.236;5.114;2023-12-29T05:04:10;35.33;;;5.70;;
59169;SDS011;52474;52.236;5.114;2023-12-29T05:06:36;40.22;;;5.85;;
59169;SDS011;52474;52.236;5.114;2023-12-29T05:09:01;37.67;;;5.75;;
59169;SDS011;52474;52.236;5.114;2023-12-29T05:11:27;45.10;;;5.32;;
59169;SDS011;52474;52.236;5.114;2023-12-29T05:13:53;43.25;;;5.72;;
59169;SDS011;52474;52.236;5.114;2023-12-29T05:16:19;36.30;;;4.43;;
59169;SDS011;52474;52.236;5.114;2023-12-29T05:18:45;42.88;;;7.03;;
59169;SDS011;52474;52.236;5.114;2023-12-29T05:21:17;26.15;;;4.78;;
59169;SDS011;52474;52.236;5.114;2023-12-29T05:23:44;32.83;;;4.68;;
59169;SDS011;52474;52.236;5.114;2023-12-29T05:26:11;26.88;;;4.80;;
59169;SDS011;52474;52.236;5.114;2023-12-29T05:28:37;36.03;;;5.72;;
59169;SDS011;52474;52.236;5.114;2023-12-29T05:31:03;29.20;;;4.55;;
59169;SDS011;52474;52.236;5.114;2023-12-29T05:33:32;31.63;;;5.07;;
59169;SDS011;52474;52.236;5.114;2023-12-29T05:35:58;33.67;;;5.00;;
59169;SDS011;52474;52.236;5.114;2023-12-29T05:38:25;30.70;;;4.95;;
59169;SDS011;52474;52.236;5.114;2023-12-29T05:40:51;39.72;;;5.35;;
59169;SDS011;52474;52.236;5.114;2023-12-29T05:43:17;33.05;;;5.07;;
59169;SDS011;52474;52.236;5.114;2023-12-29T05:45:43;41.45;;;5.13;;
59169;SDS011;52474;52.236;5.114;2023-12-29T05:48:09;40.60;;;5.30;;
59169;SDS011;52474;52.236;5.114;2023-12-29T05:50:35;34.53;;;5.25;;
59169;SDS011;52474;52.236;5.114;2023-12-29T05:53:01;32.25;;;4.80;;
59169;SDS011;52474;52.236;5.114;2023-12-29T05:55:26;31.10;;;4.38;;
59169;SDS011;52474;52.236;5.114;2023-12-29T05:57:52;25.40;;;4.43;;
59169;SDS011;52474;52.236;5.114;2023-12-29T06:00:18;39.88;;;5.18;;
59169;SDS011;52474;52.236;5.114;2023-12-29T06:02:44;31.50;;;4.68;;
59169;SDS011;52474;52.236;5.114;2023-12-29T06:05:12;32.53;;;4.50;;
59169;SDS011;52474;52.236;5.114;2023-12-29T06:07:38;31.58;;;4.93;;
59169;SDS011;52474;52.236;5.114;2023-12-29T06:10:04;36.40;;;4.70;;
59169;SDS011;52474;52.236;5.114;2023-12-29T06:12:30;23.63;;;3.88;;
59169;SDS011;52474;52.236;5.114;2023-12-29T06:14:56;26.23;;;4.38;;
59169;SDS011;52474;52.236;5.114;2023-12-29T06:17:22;22.23;;;4.45;;
59169;SDS011;52474;52.236;5.114;2023-12-29T06:19:47;25.75;;;4.07;;
59169;SDS011;52474;52.236;5.114;2023-12-29T06:22:13;31.33;;;4.18;;
59169;SDS011;52474;52.236;5.114;2023-12-29T06:24:42;32.38;;;3.85;;
59169;SDS011;52474;52.236;5.114;2023-12-29T06:27:08;23.60;;;4.47;;
59169;SDS011;52474;52.236;5.114;2023-12-29T06:29:34;22.00;;;4.25;;
59169;SDS011;52474;52.236;5.114;2023-12-29T06:32:02;24.23;;;3.17;;
59169;SDS011;52474;52.236;5.114;2023-12-29T06:34:28;23.23;;;4.18;;
59169;SDS011;52474;52.236;5.114;2023-12-29T06:36:54;19.65;;;3.67;;
59169;SDS011;52474;52.236;5.114;2023-12-29T06:39:20;23.45;;;3.60;;
59169;SDS011;52474;52.236;5.114;2023-12-29T06:41:45;20.88;;;3.72;;
59169;SDS011;52474;52.236;5.114;2023-12-29T06:44:11;23.83;;;3.53;;
59169;SDS011;52474;52.236;5.114;2023-12-29T06:46:37;19.92;;;3.95;;
59169;SDS011;52474;52.236;5.114;2023-12-29T06:49:03;24.58;;;3.65;;
59169;SDS011;52474;52.236;5.114;2023-12-29T06:51:29;18.85;;;3.05;;
59169;SDS011;52474;52.236;5.114;2023-12-29T06:53:55;27.45;;;3.33;;
59169;SDS011;52474;52.236;5.114;2023-12-29T06:56:20;17.95;;;3.70;;
59169;SDS011;52474;52.236;5.114;2023-12-29T06:58:46;19.48;;;3.17;;
59169;SDS011;52474;52.236;5.114;2023-12-29T07:01:12;17.65;;;3.28;;
59169;SDS011;52474;52.236;5.114;2023-12-29T07:03:38;23.23;;;3.63;;
59169;SDS011;52474;52.236;5.114;2023-12-29T07:06:04;14.15;;;3.00;;
59169;SDS011;52474;52.236;5.114;2023-12-29T07:08:30;12.57;;;2.70;;
59169;SDS011;52474;52.236;5.114;2023-12-29T07:10:57;18.70;;;3.17;;
59169;SDS011;52474;52.236;5.114;2023-12-29T07:13:23;27.17;;;4.38;;
59169;SDS011;52474;52.236;5.114;2023-12-29T07:15:49;20.67;;;3.45;;
59169;SDS011;52474;52.236;5.114;2023-12-29T07:18:15;19.45;;;3.53;;
59169;SDS011;52474;52.236;5.114;2023-12-29T07:20:42;13.35;;;3.42;;
59169;SDS011;52474;52.236;5.114;2023-12-29T07:23:07;16.17;;;3.28;;
59169;SDS011;52474;52.236;5.114;2023-12-29T07:25:33;20.10;;;3.80;;
59169;SDS011;52474;52.236;5.114;2023-12-29T07:27:59;13.38;;;3.10;;
59169;SDS011;52474;52.236;5.114;2023-12-29T07:30:25;17.30;;;2.85;;
59169;SDS011;52474;52.236;5.114;2023-12-29T07:32:51;12.43;;;2.60;;
59169;SDS011;52474;52.236;5.114;2023-12-29T07:35:17;12.90;;;3.15;;
59169;SDS011;52474;52.236;5.114;2023-12-29T07:37:45;12.88;;;2.65;;
59169;SDS011;52474;52.236;5.114;2023-12-29T07:40:12;14.93;;;2.90;;
59169;SDS011;52474;52.236;5.114;2023-12-29T07:42:39;13.25;;;3.15;;
59169;SDS011;52474;52.236;5.114;2023-12-29T07:45:06;9.98;;;3.10;;
59169;SDS011;52474;52.236;5.114;2023-12-29T07:47:32;14.02;;;2.97;;
59169;SDS011;52474;52.236;5.114;2023-12-29T07:49:58;17.10;;;3.75;;
59169;SDS011;52474;52.236;5.114;2023-12-29T07:52:23;14.48;;;3.40;;
59169;SDS011;52474;52.236;5.114;2023-12-29T07:54:49;12.63;;;3.67;;
59169;SDS011;52474;52.236;5.114;2023-12-29T07:57:15;14.00;;;4.28;;
59169;SDS011;52474;52.236;5.114;2023-12-29T07:59:40;12.73;;;3.67;;
59169;SDS011;52474;52.236;5.114;2023-12-29T08:02:06;14.65;;;3.40;;
59169;SDS011;52474;52.236;5.114;2023-12-29T08:04:32;11.10;;;2.85;;
59169;SDS011;52474;52.236;5.114;2023-12-29T08:06:58;11.80;;;3.20;;
59169;SDS011;52474;52.236;5.114;2023-12-29T08:09:24;12.77;;;3.75;;
59169;SDS011;52474;52.236;5.114;2023-12-29T08:11:51;20.40;;;4.60;;
59169;SDS011;52474;52.236;5.114;2023-12-29T08:14:17;13.07;;;3.70;;
59169;SDS011;52474;52.236;5.114;2023-12-29T08:16:42;16.88;;;3.78;;
59169;SDS011;52474;52.236;5.114;2023-12-29T08:19:08;19.85;;;4.38;;
59169;SDS011;52474;52.236;5.114;2023-12-29T08:21:35;15.73;;;4.30;;
59169;SDS011;52474;52.236;5.114;2023-12-29T08:24:01;12.88;;;4.25;;
59169;SDS011;52474;52.236;5.114;2023-12-29T08:26:27;16.98;;;4.60;;
59169;SDS011;52474;52.236;5.114;2023-12-29T08:28:53;15.35;;;4.53;;
59169;SDS011;52474;52.236;5.114;2023-12-29T08:31:18;11.00;;;4.15;;
59169;SDS011;52474;52.236;5.114;2023-12-29T08:33:44;13.85;;;4.38;;
59169;SDS011;52474;52.236;5.114;2023-12-29T08:36:13;15.93;;;5.05;;
59169;SDS011;52474;52.236;5.114;2023-12-29T08:38:43;20.40;;;5.00;;
59169;SDS011;52474;52.236;5.114;2023-12-29T08:41:09;12.32;;;4.43;;
59169;SDS011;52474;52.236;5.114;2023-12-29T08:43:34;15.52;;;4.43;;
59169;SDS011;52474;52.236;5.114;2023-12-29T08:46:01;14.68;;;4.20;;
59169;SDS011;52474;52.236;5.114;2023-12-29T08:48:27;14.43;;;4.20;;
59169;SDS011;52474;52.236;5.114;2023-12-29T08:50:53;10.15;;;3.80;;
59169;SDS011;52474;52.236;5.114;2023-12-29T08:53:19;13.93;;;3.90;;
59169;SDS011;52474;52.236;5.114;2023-12-29T08:55:44;12.93;;;4.38;;
59169;SDS011;52474;52.236;5.114;2023-12-29T08:58:12;11.23;;;3.38;;
59169;SDS011;52474;52.236;5.114;2023-12-29T09:00:38;7.80;;;3.58;;
59169;SDS011;52474;52.236;5.114;2023-12-29T09:03:04;12.45;;;3.90;;
59169;SDS011;52474;52.236;5.114;2023-12-29T09:05:30;9.25;;;3.75;;
59169;SDS011;52474;52.236;5.114;2023-12-29T09:07:55;9.02;;;3.45;;
59169;SDS011;52474;52.236;5.114;2023-12-29T09:10:21;10.02;;;3.45;;
59169;SDS011;52474;52.236;5.114;2023-12-29T09:12:48;12.68;;;4.10;;
59169;SDS011;52474;52.236;5.114;2023-12-29T09:15:15;10.82;;;4.30;;
59169;SDS011;52474;52.236;5.114;2023-12-29T09:17:41;10.65;;;3.60;;
59169;SDS011;52474;52.236;5.114;2023-12-29T09:20:08;15.27;;;4.32;;
59169;SDS011;52474;52.236;5.114;2023-12-29T09:22:35;10.77;;;3.80;;
59169;SDS011;52474;52.236;5.114;2023-12-29T09:25:01;11.30;;;3.53;;
59169;SDS011;52474;52.236;5.114;2023-12-29T09:27:26;14.13;;;3.55;;
59169;SDS011;52474;52.236;5.114;2023-12-29T09:29:52;12.32;;;3.95;;
59169;SDS011;52474;52.236;5.114;2023-12-29T09:32:18;9.15;;;3.55;;
59169;SDS011;52474;52.236;5.114;2023-12-29T09:34:44;11.07;;;3.38;;
59169;SDS011;52474;52.236;5.114;2023-12-29T09:37:09;11.45;;;3.65;;
59169;SDS011;52474;52.236;5.114;2023-12-29T09:39:35;13.52;;;3.20;;
59169;SDS011;52474;52.236;5.114;2023-12-29T09:42:01;12.35;;;3.35;;
59169;SDS011;52474;52.236;5.114;2023-12-29T09:44:29;11.35;;;3.53;;
59169;SDS011;52474;52.236;5.114;2023-12-29T09:46:57;13.55;;;2.88;;
59169;SDS011;52474;52.236;5.114;2023-12-29T09:49:27;7.50;;;3.10;;
59169;SDS011;52474;52.236;5.114;2023-12-29T09:52:02;9.27;;;3.42;;
59169;SDS011;52474;52.236;5.114;2023-12-29T09:54:29;11.02;;;2.78;;
59169;SDS011;52474;52.236;5.114;2023-12-29T09:56:56;8.82;;;3.00;;
59169;SDS011;52474;52.236;5.114;2023-12-29T09:59:22;8.40;;;2.95;;
59169;SDS011;52474;52.236;5.114;2023-12-29T10:01:50;9.35;;;3.10;;
59169;SDS011;52474;52.236;5.114;2023-12-29T10:04:18;7.50;;;3.35;;
59169;SDS011;52474;52.236;5.114;2023-12-29T10:06:44;10.15;;;2.78;;
59169;SDS011;52474;52.236;5.114;2023-12-29T10:09:12;12.52;;;3.05;;
59169;SDS011;52474;52.236;5.114;2023-12-29T10:11:38;8.18;;;2.90;;
59169;SDS011;52474;52.236;5.114;2023-12-29T10:14:24;8.10;;;2.80;;
59169;SDS011;52474;52.236;5.114;2023-12-29T10:16:59;11.65;;;3.65;;
59169;SDS011;52474;52.236;5.114;2023-12-29T10:19:41;12.15;;;3.20;;
59169;SDS011;52474;52.236;5.114;2023-12-29T10:22:25;13.55;;;3.13;;
59169;SDS011;52474;52.236;5.114;2023-12-29T10:25:00;12.18;;;2.90;;
59169;SDS011;52474;52.236;5.114;2023-12-29T10:27:26;13.10;;;2.70;;
59169;SDS011;52474;52.236;5.114;2023-12-29T10:29:52;12.98;;;2.90;;
59169;SDS011;52474;52.236;5.114;2023-12-29T10:32:18;11.93;;;2.75;;
59169;SDS011;52474;52.236;5.114;2023-12-29T10:34:43;13.05;;;2.70;;
59169;SDS011;52474;52.236;5.114;2023-12-29T10:37:09;11.10;;;3.00;;
59169;SDS011;52474;52.236;5.114;2023-12-29T10:39:38;12.35;;;2.70;;
59169;SDS011;52474;52.236;5.114;2023-12-29T10:42:05;18.35;;;3.25;;
59169;SDS011;52474;52.236;5.114;2023-12-29T10:44:33;12.05;;;2.95;;
59169;SDS011;52474;52.236;5.114;2023-12-29T10:47:04;13.20;;;2.47;;
59169;SDS011;52474;52.236;5.114;2023-12-29T10:49:33;10.27;;;3.00;;
59169;SDS011;52474;52.236;5.114;2023-12-29T10:51:58;16.27;;;2.78;;
59169;SDS011;52474;52.236;5.114;2023-12-29T10:54:24;9.48;;;2.50;;
59169;SDS011;52474;52.236;5.114;2023-12-29T10:57:23;10.45;;;2.22;;
59169;SDS011;52474;52.236;5.114;2023-12-29T10:59:42;11.68;;;2.58;;
59169;SDS011;52474;52.236;5.114;2023-12-29T11:02:10;18.23;;;2.65;;
59169;SDS011;52474;52.236;5.114;2023-12-29T11:04:39;17.98;;;2.55;;
59169;SDS011;52474;52.236;5.114;2023-12-29T11:07:06;17.42;;;3.10;;
59169;SDS011;52474;52.236;5.114;2023-12-29T11:09:33;14.10;;;2.80;;
59169;SDS011;52474;52.236;5.114;2023-12-29T11:12:00;17.83;;;3.05;;
59169;SDS011;52474;52.236;5.114;2023-12-29T11:14:27;18.17;;;3.15;;
59169;SDS011;52474;52.236;5.114;2023-12-29T11:16:56;19.65;;;2.42;;
59169;SDS011;52474;52.236;5.114;2023-12-29T11:19:22;16.38;;;2.45;;
59169;SDS011;52474;52.236;5.114;2023-12-29T11:21:48;17.73;;;3.20;;
59169;SDS011;52474;52.236;5.114;2023-12-29T11:24:18;14.63;;;2.20;;
59169;SDS011;52474;52.236;5.114;2023-12-29T11:26:44;16.92;;;2.55;;
59169;SDS011;52474;52.236;5.114;2023-12-29T11:29:13;15.10;;;2.83;;
59169;SDS011;52474;52.236;5.114;2023-12-29T11:31:40;13.55;;;2.80;;
59169;SDS011;52474;52.236;5.114;2023-12-29T11:34:19;18.33;;;3.03;;
59169;SDS011;52474;52.236;5.114;2023-12-29T11:36:47;14.35;;;2.75;;
59169;SDS011;52474;52.236;5.114;2023-12-29T11:42:04;21.58;;;2.67;;
59169;SDS011;52474;52.236;5.114;2023-12-29T11:44:37;22.17;;;3.45;;
59169;SDS011;52474;52.236;5.114;2023-12-29T11:47:03;19.20;;;3.40;;
59169;SDS011;52474;52.236;5.114;2023-12-29T11:49:57;19.15;;;2.70;;
59169;SDS011;52474;52.236;5.114;2023-12-29T11:52:36;22.10;;;3.20;;
59169;SDS011;52474;52.236;5.114;2023-12-29T11:55:12;17.17;;;2.80;;
59169;SDS011;52474;52.236;5.114;2023-12-29T11:57:40;18.10;;;3.00;;
59169;SDS011;52474;52.236;5.114;2023-12-29T12:00:07;16.20;;;2.25;;
59169;SDS011;52474;52.236;5.114;2023-12-29T12:02:39;16.45;;;2.75;;
59169;SDS011;52474;52.236;5.114;2023-12-29T12:05:08;15.60;;;2.67;;
59169;SDS011;52474;52.236;5.114;2023-12-29T12:12:45;17.08;;;2.95;;
59169;SDS011;52474;52.236;5.114;2023-12-29T12:17:52;16.20;;;2.92;;
59169;SDS011;52474;52.236;5.114;2023-12-29T12:20:18;16.35;;;3.15;;
59169;SDS011;52474;52.236;5.114;2023-12-29T12:22:44;17.60;;;3.53;;
59169;SDS011;52474;52.236;5.114;2023-12-29T12:25:12;23.33;;;2.63;;
59169;SDS011;52474;52.236;5.114;2023-12-29T12:27:38;16.02;;;2.25;;
59169;SDS011;52474;52.236;5.114;2023-12-29T12:30:04;11.48;;;2.33;;
59169;SDS011;52474;52.236;5.114;2023-12-29T12:32:30;21.08;;;3.40;;
59169;SDS011;52474;52.236;5.114;2023-12-29T12:34:56;19.83;;;2.80;;
59169;SDS011;52474;52.236;5.114;2023-12-29T12:37:22;16.45;;;3.40;;
59169;SDS011;52474;52.236;5.114;2023-12-29T12:39:51;10.67;;;2.23;;
59169;SDS011;52474;52.236;5.114;2023-12-29T12:42:19;10.52;;;2.15;;
59169;SDS011;52474;52.236;5.114;2023-12-29T12:47:24;12.90;;;2.65;;
59169;SDS011;52474;52.236;5.114;2023-12-29T12:50:02;12.75;;;2.10;;
59169;SDS011;52474;52.236;5.114;2023-12-29T12:52:31;11.23;;;2.47;;
59169;SDS011;52474;52.236;5.114;2023-12-29T12:54:57;16.20;;;2.40;;
59169;SDS011;52474;52.236;5.114;2023-12-29T12:57:24;16.50;;;2.08;;
59169;SDS011;52474;52.236;5.114;2023-12-29T12:59:50;10.77;;;2.13;;
59169;SDS011;52474;52.236;5.114;2023-12-29T13:02:16;13.80;;;2.10;;
59169;SDS011;52474;52.236;5.114;2023-12-29T13:04:43;13.48;;;2.92;;
59169;SDS011;52474;52.236;5.114;2023-12-29T13:07:09;12.98;;;2.35;;
59169;SDS011;52474;52.236;5.114;2023-12-29T13:09:38;13.65;;;1.95;;
59169;SDS011;52474;52.236;5.114;2023-12-29T13:12:13;11.40;;;1.92;;
59169;SDS011;52474;52.236;5.114;2023-12-29T13:14:41;13.05;;;2.00;;
59169;SDS011;52474;52.236;5.114;2023-12-29T13:17:10;10.07;;;1.75;;
59169;SDS011;52474;52.236;5.114;2023-12-29T13:26:15;13.20;;;2.15;;
59169;SDS011;52474;52.236;5.114;2023-12-29T13:28:47;16.02;;;2.53;;
59169;SDS011;52474;52.236;5.114;2023-12-29T13:31:13;10.10;;;2.03;;
59169;SDS011;52474;52.236;5.114;2023-12-29T13:33:45;19.35;;;2.65;;
59169;SDS011;52474;52.236;5.114;2023-12-29T13:37:00;14.98;;;2.13;;
59169;SDS011;52474;52.236;5.114;2023-12-29T13:41:55;7.95;;;1.60;;
59169;SDS011;52474;52.236;5.114;2023-12-29T13:44:23;18.30;;;2.38;;
59169;SDS011;52474;52.236;5.114;2023-12-29T13:46:52;16.60;;;2.00;;
59169;SDS011;52474;52.236;5.114;2023-12-29T13:49:20;11.43;;;2.80;;
59169;SDS011;52474;52.236;5.114;2023-12-29T13:51:46;14.90;;;2.30;;
59169;SDS011;52474;52.236;5.114;2023-12-29T13:54:12;16.15;;;2.92;;
59169;SDS011;52474;52.236;5.114;2023-12-29T13:56:50;10.00;;;1.92;;
59169;SDS011;52474;52.236;5.114;2023-12-29T13:59:17;11.30;;;2.20;;
59169;SDS011;52474;52.236;5.114;2023-12-29T14:01:42;15.27;;;2.42;;
59169;SDS011;52474;52.236;5.114;2023-12-29T14:04:10;11.13;;;2.10;;
59169;SDS011;52474;52.236;5.114;2023-12-29T14:06:38;11.70;;;2.50;;
59169;SDS011;52474;52.236;5.114;2023-12-29T14:09:15;8.55;;;2.10;;
59169;SDS011;52474;52.236;5.114;2023-12-29T14:11:45;17.23;;;2.60;;
59169;SDS011;52474;52.236;5.114;2023-12-29T14:14:12;10.70;;;2.20;;
59169;SDS011;52474;52.236;5.114;2023-12-29T14:16:38;12.25;;;2.40;;
59169;SDS011;52474;52.236;5.114;2023-12-29T14:19:07;17.95;;;2.40;;
59169;SDS011;52474;52.236;5.114;2023-12-29T14:21:35;18.20;;;3.22;;
59169;SDS011;52474;52.236;5.114;2023-12-29T14:26:32;8.55;;;1.50;;
59169;SDS011;52474;52.236;5.114;2023-12-29T14:29:05;10.50;;;1.92;;
59169;SDS011;52474;52.236;5.114;2023-12-29T14:31:35;12.77;;;1.92;;
59169;SDS011;52474;52.236;5.114;2023-12-29T14:34:02;14.50;;;2.03;;
59169;SDS011;52474;52.236;5.114;2023-12-29T14:36:29;15.32;;;2.05;;
59169;SDS011;52474;52.236;5.114;2023-12-29T14:38:56;12.95;;;2.65;;
59169;SDS011;52474;52.236;5.114;2023-12-29T14:41:22;12.23;;;2.20;;
59169;SDS011;52474;52.236;5.114;2023-12-29T14:43:49;11.95;;;2.22;;
59169;SDS011;52474;52.236;5.114;2023-12-29T14:46:15;10.90;;;2.33;;
59169;SDS011;52474;52.236;5.114;2023-12-29T14:48:41;12.77;;;2.60;;
59169;SDS011;52474;52.236;5.114;2023-12-29T14:51:07;11.65;;;2.10;;
59169;SDS011;52474;52.236;5.114;2023-12-29T14:53:33;15.43;;;2.70;;
59169;SDS011;52474;52.236;5.114;2023-12-29T14:55:59;17.02;;;2.80;;
59169;SDS011;52474;52.236;5.114;2023-12-29T14:58:25;6.97;;;1.80;;
59169;SDS011;52474;52.236;5.114;2023-12-29T15:00:51;8.52;;;1.58;;
59169;SDS011;52474;52.236;5.114;2023-12-29T15:03:16;10.38;;;2.05;;
59169;SDS011;52474;52.236;5.114;2023-12-29T15:05:44;8.85;;;1.45;;
59169;SDS011;52474;52.236;5.114;2023-12-29T15:08:09;5.97;;;1.25;;